Time;durP1;ratioP1;P1;durP2;ratioP2;P2;SDS_P1;SDS_P2;PMS_P1;PMS_P2;Temp;Humidity;BMP_temperature;BMP_pressure;BME280_temperature;BME280_humidity;BME280_pressure;Samples;Min_cycle;Max_cycle;Signal;HPM_P1;HPM_P2
2022/06/17 04:55:35;;;;;;;5.20;2.90;;;23.50;67.00;;;;;;6169232;22;20266;-92
2022/06/17 04:58:15;;;;;;;11.37;2.30;;;23.40;66.80;;;;;;6194220;23;20243;-91
2022/06/17 05:00:57;;;;;;;6.10;2.40;;;23.50;66.90;;;;;;6187521;23;20136;-96
2022/06/17 05:03:27;;;;;;;4.30;2.30;;;23.70;66.30;;;;;;6187027;23;20206;-96
2022/06/17 05:05:53;;;;;;;3.87;1.90;;;23.90;66.30;;;;;;6186731;23;20203;-96
2022/06/17 05:08:34;;;;;;;4.83;2.33;;;23.90;66.80;;;;;;6185833;23;20191;-95
2022/06/17 05:11:08;;;;;;;7.67;2.37;;;23.90;66.00;;;;;;6186142;23;20155;-95
2022/06/17 05:13:41;;;;;;;3.60;2.20;;;23.90;66.30;;;;;;6186658;23;20176;-96
2022/06/17 05:16:12;;;;;;;4.87;2.57;;;23.90;66.60;;;;;;6186808;23;20180;-95
2022/06/17 05:18:38;;;;;;;2.93;2.30;;;23.90;66.50;;;;;;6186646;23;20153;-96
2022/06/17 05:21:04;;;;;;;4.83;2.50;;;23.80;66.60;;;;;;6186734;23;20193;-94
2022/06/17 05:23:29;;;;;;;6.17;2.33;;;23.90;66.70;;;;;;6185938;23;20146;-95
2022/06/17 05:25:55;;;;;;;7.93;2.70;;;24.00;66.60;;;;;;6186971;23;20511;-95
2022/06/17 05:28:21;;;;;;;5.00;2.23;;;24.00;67.10;;;;;;6181341;23;20173;-96
2022/06/17 05:30:53;;;;;;;6.60;2.60;;;23.90;66.90;;;;;;6156252;23;20228;-95
2022/06/17 05:33:20;;;;;;;4.43;2.43;;;23.90;67.10;;;;;;6156464;23;20583;-96
2022/06/17 05:35:48;;;;;;;4.80;2.13;;;23.90;67.00;;;;;;6156411;23;20146;-94
2022/06/17 05:38:13;;;;;;;5.73;2.53;;;23.90;67.00;;;;;;6155816;23;20149;-91
2022/06/17 05:40:41;;;;;;;5.13;2.60;;;23.80;67.50;;;;;;6156463;23;20161;-92
2022/06/17 05:43:07;;;;;;;5.90;2.30;;;23.90;66.90;;;;;;6156945;23;20149;-93
2022/06/17 05:45:33;;;;;;;3.67;2.40;;;23.90;66.70;;;;;;6156414;23;20208;-91
2022/06/17 05:47:59;;;;;;;6.10;2.73;;;23.80;67.20;;;;;;6156250;23;20224;-91
2022/06/17 05:50:26;;;;;;;3.70;2.90;;;23.80;67.20;;;;;;6156771;23;20192;-92
2022/06/17 05:53:02;;;;;;;9.23;2.40;;;23.70;67.00;;;;;;6157166;23;20150;-96
2022/06/17 05:55:30;;;;;;;5.10;2.30;;;23.80;70.40;;;;;;6163652;23;20172;-93
2022/06/17 05:57:57;;;;;;;4.50;2.07;;;23.60;68.00;;;;;;6169265;23;20177;-96
2022/06/17 06:00:24;;;;;;;7.90;3.00;;;23.70;67.60;;;;;;6172448;23;20153;-95
2022/06/17 06:02:54;;;;;;;5.83;2.30;;;23.80;66.90;;;;;;6149578;23;20153;-94
2022/06/17 06:05:24;;;;;;;7.40;2.50;;;23.90;66.70;;;;;;6175094;23;20149;-96
2022/06/17 06:07:50;;;;;;;5.63;2.60;;;23.80;66.50;;;;;;6127298;23;20236;-96
2022/06/17 06:10:22;;;;;;;4.30;2.60;;;23.80;67.00;;;;;;6173989;23;20156;-93
2022/06/17 06:12:57;;;;;;;4.47;2.63;;;23.60;67.30;;;;;;6183346;23;20144;-90
2022/06/17 06:24:20;;;;;;;6.27;2.50;;;23.30;68.30;;;;;;6201832;22;20181;-95
2022/06/17 06:27:39;;;;;;;7.40;2.50;;;23.10;68.70;;;;;;6228831;23;20210;-88
2022/06/17 06:30:32;;;;;;;7.90;2.80;;;23.20;68.90;;;;;;6211914;23;20160;-89
2022/06/17 06:33:32;;;;;;;7.47;2.50;;;23.20;68.90;;;;;;6238835;23;20246;-90
2022/06/17 06:36:13;;;;;;;5.50;2.20;;;23.30;68.50;;;;;;6237177;23;20691;-90
2022/06/17 06:38:38;;;;;;;3.83;2.30;;;23.30;68.40;;;;;;6221205;23;20162;-92
2022/06/17 06:41:04;;;;;;;4.23;2.37;;;23.30;68.70;;;;;;6215541;23;20156;-91
2022/06/17 06:43:30;;;;;;;5.83;2.50;;;23.40;69.10;;;;;;6215471;23;20152;-92
2022/06/17 06:45:56;;;;;;;7.00;2.53;;;23.40;69.00;;;;;;6215496;23;20188;-91
2022/06/17 06:48:24;;;;;;;7.80;2.90;;;23.50;68.90;;;;;;6215532;23;20167;-92
2022/06/17 06:50:53;;;;;;;6.80;2.20;;;23.70;68.40;;;;;;6216414;23;20144;-91
2022/06/17 06:53:19;;;;;;;4.50;2.53;;;23.80;68.10;;;;;;6218424;23;20520;-91
2022/06/17 06:55:50;;;;;;;5.93;2.17;;;23.80;67.60;;;;;;6216665;23;20155;-92
2022/06/17 06:58:19;;;;;;;3.13;2.17;;;23.90;67.70;;;;;;6216926;23;20156;-92
2022/06/17 07:00:50;;;;;;;5.97;2.27;;;23.90;67.70;;;;;;6216747;23;20210;-94
2022/06/17 07:03:20;;;;;;;3.37;2.20;;;24.00;67.90;;;;;;6216586;23;20155;-96
2022/06/17 07:05:51;;;;;;;3.50;2.53;;;24.00;68.00;;;;;;6215885;23;20148;-95
2022/06/17 07:08:19;;;;;;;5.50;2.23;;;24.00;68.20;;;;;;6216256;23;20235;-96
2022/06/17 07:10:47;;;;;;;4.50;2.10;;;24.10;68.70;;;;;;6215693;23;20573;-95
2022/06/17 07:13:12;;;;;;;14.73;3.00;;;24.00;68.20;;;;;;6215479;23;20175;-96
2022/06/17 07:15:40;;;;;;;4.43;2.10;;;24.20;68.50;;;;;;6215840;23;20160;-96
2022/06/17 07:18:12;;;;;;;4.37;2.50;;;24.40;68.30;;;;;;6215778;23;20164;-95
2022/06/17 07:20:42;;;;;;;4.57;2.10;;;24.50;67.70;;;;;;6215035;23;20144;-95
2022/06/17 07:23:13;;;;;;;9.27;2.57;;;24.60;67.50;;;;;;6215444;23;20164;-91
2022/06/17 07:25:40;;;;;;;6.83;2.40;;;24.80;67.40;;;;;;6215267;23;20233;-92
2022/06/17 07:28:06;;;;;;;5.53;2.67;;;24.90;67.30;;;;;;6215162;23;20478;-91
2022/06/17 07:30:34;;;;;;;4.90;2.40;;;24.90;67.10;;;;;;6215115;23;20157;-91
2022/06/17 07:33:01;;;;;;;6.57;2.27;;;25.00;66.90;;;;;;6215315;23;20154;-92
2022/06/17 07:35:27;;;;;;;6.53;2.40;;;25.10;66.60;;;;;;6218995;23;20155;-92
2022/06/17 07:40:37;;;;;;;5.03;2.40;;;25.50;65.50;;;;;;6216543;23;20540;-91
2022/06/17 07:43:03;;;;;;;4.17;2.20;;;25.50;65.10;;;;;;6215067;23;20190;-92
2022/06/17 07:45:31;;;;;;;5.70;2.27;;;25.60;65.60;;;;;;6215466;23;20148;-92
2022/06/17 07:47:58;;;;;;;6.77;2.53;;;25.60;65.00;;;;;;6214439;23;20154;-92
2022/06/17 07:50:28;;;;;;;6.30;2.40;;;25.60;65.00;;;;;;6215410;23;20148;-96
2022/06/17 07:52:55;;;;;;;5.40;2.57;;;25.60;65.30;;;;;;6215474;23;20153;-93
2022/06/17 07:55:21;;;;;;;6.83;2.43;;;25.60;64.90;;;;;;6215093;23;20163;-91
2022/06/17 07:57:48;;;;;;;5.67;2.33;;;25.60;64.90;;;;;;6215086;23;20560;-92
2022/06/17 08:00:33;;;;;;;4.97;2.90;;;25.70;64.40;;;;;;6215319;23;20175;-91
2022/06/17 08:03:00;;;;;;;5.17;2.40;;;25.70;64.40;;;;;;6214563;23;20162;-91
2022/06/17 08:05:26;;;;;;;5.63;2.30;;;25.70;63.20;;;;;;6215220;23;20151;-92
2022/06/17 08:07:54;;;;;;;4.00;2.43;;;25.60;64.20;;;;;;6214912;23;20192;-92
2022/06/17 08:10:22;;;;;;;4.20;2.30;;;25.70;64.60;;;;;;6214867;23;20144;-95
2022/06/17 08:12:48;;;;;;;4.80;2.63;;;25.70;63.50;;;;;;6214695;23;20151;-96
2022/06/17 08:15:15;;;;;;;6.27;2.53;;;25.80;63.50;;;;;;6214661;23;20158;-96
2022/06/17 08:17:41;;;;;;;7.37;2.40;;;26.00;63.30;;;;;;6214265;23;20181;-95
2022/06/17 08:20:18;;;;;;;5.80;3.00;;;26.10;63.10;;;;;;6214488;23;20151;-95
2022/06/17 08:22:44;;;;;;;6.67;2.73;;;26.00;63.60;;;;;;6215232;23;20158;-96
2022/06/17 08:25:10;;;;;;;7.73;2.77;;;26.00;63.30;;;;;;6236462;23;20159;-95
2022/06/17 08:27:50;;;;;;;6.20;2.63;;;26.20;63.00;;;;;;6216166;23;20148;-96
2022/06/17 08:30:19;;;;;;;7.73;2.80;;;26.30;63.50;;;;;;6214518;23;20156;-95
2022/06/17 08:32:48;;;;;;;8.03;3.07;;;26.40;62.70;;;;;;6213876;23;20151;-95
2022/06/17 08:35:19;;;;;;;7.03;3.40;;;26.40;63.00;;;;;;6215029;23;20148;-96
2022/06/17 08:37:46;;;;;;;8.77;2.40;;;26.50;62.90;;;;;;6217368;23;20187;-92
2022/06/17 08:40:22;;;;;;;7.03;2.60;;;26.60;63.10;;;;;;6214813;23;20140;-95
2022/06/17 08:43:02;;;;;;;9.83;2.77;;;26.80;62.50;;;;;;6215065;23;20167;-95
2022/06/17 08:45:44;;;;;;;8.27;2.93;;;27.00;61.80;;;;;;6189894;23;20643;-92
2022/06/17 08:48:12;;;;;;;6.17;2.63;;;27.10;61.90;;;;;;6214053;23;20152;-93
2022/06/17 08:50:48;;;;;;;8.23;2.87;;;27.00;61.90;;;;;;6187225;23;20216;-94
2022/06/17 08:53:36;;;;;;;5.90;2.23;;;27.00;61.40;;;;;;6215042;23;20151;-95
2022/06/17 08:56:13;;;;;;;5.73;2.60;;;27.10;61.70;;;;;;6214706;23;20152;-95
2022/06/17 08:59:27;;;;;;;4.53;2.10;;;27.10;61.30;;;;;;6215028;23;20179;-95
2022/06/17 09:02:19;;;;;;;3.53;2.27;;;27.30;60.70;;;;;;6133531;23;20163;-96
2022/06/17 09:04:51;;;;;;;6.67;2.40;;;27.40;60.40;;;;;;6214888;23;20158;-95
2022/06/17 09:07:35;;;;;;;5.23;2.23;;;27.30;60.30;;;;;;6189863;23;20156;-96
2022/06/17 09:10:22;;;;;;;4.13;2.30;;;27.30;61.40;;;;;;6189957;23;20164;-95
2022/06/17 09:13:16;;;;;;;6.90;2.13;;;27.40;60.00;;;;;;6190427;23;20179;-96
2022/06/17 09:15:59;;;;;;;5.97;1.80;;;27.40;60.10;;;;;;6214235;23;20152;-95
2022/06/17 09:18:33;;;;;;;4.53;1.57;;;27.40;60.20;;;;;;6214566;23;20238;-95
2022/06/17 09:21:09;;;;;;;3.40;1.93;;;27.40;59.20;;;;;;6214696;23;20601;-96
2022/06/17 09:23:38;;;;;;;3.67;1.93;;;27.30;59.40;;;;;;6214955;23;20187;-96
2022/06/17 09:26:10;;;;;;;7.87;2.73;;;27.30;59.10;;;;;;6214382;23;20199;-91
2022/06/17 09:28:42;;;;;;;3.17;1.80;;;27.40;59.70;;;;;;6214471;23;20147;-96
2022/06/17 09:31:34;;;;;;;3.90;1.47;;;27.30;58.80;;;;;;6213811;23;20144;-95
2022/06/17 09:34:21;;;;;;;3.77;1.40;;;27.40;59.00;;;;;;6214459;23;20155;-95
2022/06/17 09:36:54;;;;;;;3.20;1.80;;;27.40;58.50;;;;;;6213960;23;20167;-95
2022/06/17 09:39:49;;;;;;;2.33;1.50;;;27.40;59.50;;;;;;6214615;23;20156;-95
2022/06/17 09:42:21;;;;;;;12.40;2.43;;;27.50;58.80;;;;;;6215085;23;20589;-95
2022/06/17 09:44:59;;;;;;;4.43;1.87;;;27.60;59.60;;;;;;6216365;23;20183;-96
2022/06/17 09:47:38;;;;;;;3.37;1.67;;;27.80;59.10;;;;;;6216427;23;20156;-96
2022/06/17 09:50:15;;;;;;;3.97;1.70;;;27.80;58.80;;;;;;6215844;23;20151;-95
2022/06/17 09:52:54;;;;;;;4.87;1.90;;;27.80;59.40;;;;;;6216374;23;20565;-95
2022/06/17 09:55:32;;;;;;;2.90;1.33;;;27.80;58.70;;;;;;6191160;23;20164;-95
2022/06/17 09:58:31;;;;;;;6.87;1.80;;;27.90;57.60;;;;;;6216186;23;20278;-95
2022/06/17 10:00:58;;;;;;;2.93;1.43;;;27.90;57.90;;;;;;6216422;23;20577;-94
2022/06/17 10:03:34;;;;;;;3.60;1.40;;;28.10;57.90;;;;;;6216685;23;20591;-94
2022/06/17 10:06:09;;;;;;;4.57;1.80;;;28.10;58.90;;;;;;6216880;23;20148;-95
2022/06/17 10:08:55;;;;;;;7.03;2.00;;;28.10;57.70;;;;;;6191574;23;20205;-95
2022/06/17 10:11:43;;;;;;;2.77;1.67;;;28.10;57.80;;;;;;6216458;23;20152;-95
2022/06/17 10:14:23;;;;;;;1.70;1.60;;;28.10;57.80;;;;;;6216363;23;20152;-95
2022/06/17 10:20:04;;;;;;;3.90;1.43;;;27.80;57.80;;;;;;6217543;23;20232;-95
2022/06/17 10:22:41;;;;;;;5.47;1.60;;;27.80;58.10;;;;;;6215667;23;20585;-95
2022/06/17 10:25:25;;;;;;;6.13;2.00;;;27.80;58.10;;;;;;6215481;23;20267;-94
2022/06/17 10:28:22;;;;;;;5.20;1.70;;;27.80;57.40;;;;;;6190249;23;20490;-95
2022/06/17 10:30:59;;;;;;;2.77;1.70;;;28.00;57.40;;;;;;6190703;23;20226;-95
2022/06/17 10:33:28;;;;;;;4.97;1.67;;;28.00;57.20;;;;;;6215593;23;20214;-95
2022/06/17 10:35:54;;;;;;;4.03;1.50;;;28.20;57.70;;;;;;6216133;23;20182;-94
2022/06/17 10:38:35;;;;;;;3.60;1.67;;;28.40;57.50;;;;;;6215294;23;20652;-95
2022/06/17 10:41:01;;;;;;;2.63;1.57;;;28.60;58.10;;;;;;6215984;23;20233;-95
2022/06/17 10:43:36;;;;;;;2.33;1.23;;;28.60;58.20;;;;;;6215399;23;20159;-96
2022/06/17 10:46:03;;;;;;;2.77;1.40;;;28.80;57.40;;;;;;6215278;23;20152;-95
2022/06/17 10:49:04;;;;;;;2.83;1.77;;;28.80;57.40;;;;;;6215698;23;20151;-96
2022/06/17 10:51:34;;;;;;;2.67;1.60;;;28.90;56.20;;;;;;6191030;23;20238;-95
2022/06/17 10:54:04;;;;;;;3.60;1.27;;;28.90;56.60;;;;;;6214876;23;20160;-95
2022/06/17 10:56:41;;;;;;;5.03;1.53;;;29.00;57.80;;;;;;6215544;23;20180;-95
2022/06/17 10:59:10;;;;;;;3.20;1.80;;;29.20;56.00;;;;;;6215578;23;20569;-95
2022/06/17 11:02:02;;;;;;;2.77;1.20;;;29.10;55.00;;;;;;6215403;23;20148;-93
2022/06/17 11:04:34;;;;;;;4.07;1.57;;;28.90;55.60;;;;;;6209758;23;20164;-95
2022/06/17 11:07:29;;;;;;;7.23;1.87;;;29.00;56.10;;;;;;6215764;23;20163;-94
2022/06/17 11:10:14;;;;;;;4.00;1.57;;;28.90;56.00;;;;;;6215593;23;20148;-95
2022/06/17 11:12:56;;;;;;;2.60;1.30;;;28.70;56.20;;;;;;6190175;23;20248;-95
2022/06/17 11:15:27;;;;;;;5.10;1.80;;;28.80;57.00;;;;;;6215812;23;20573;-95
2022/06/17 11:17:58;;;;;;;2.73;1.60;;;28.90;56.40;;;;;;6190577;23;20180;-96
2022/06/17 11:20:29;;;;;;;3.10;1.67;;;29.00;56.70;;;;;;6215951;23;20526;-94
2022/06/17 11:23:23;;;;;;;7.70;1.83;;;29.30;56.00;;;;;;6215881;23;20152;-94
2022/06/17 11:26:13;;;;;;;3.93;1.57;;;29.50;55.80;;;;;;6189947;23;20263;-92
2022/06/17 11:28:43;;;;;;;2.43;1.47;;;30.00;55.90;;;;;;6215666;23;20542;-95
2022/06/17 11:31:38;;;;;;;3.70;1.63;;;30.60;55.60;;;;;;6215706;23;20147;-95
2022/06/17 11:34:17;;;;;;;3.30;2.00;;;31.40;55.10;;;;;;6215319;23;20152;-95
2022/06/17 11:37:04;;;;;;;4.85;1.67;;;31.70;54.70;;;;;;6190570;23;20195;-93
2022/06/17 11:39:51;;;;;;;;;;;;;;;;;;;;;
2022/06/17 11:42:20;;;;;;;3.67;1.90;;;33.50;52.60;;;;;;6216392;23;20533;-95
2022/06/17 11:45:06;;;;;;;2.50;1.38;;;34.30;52.20;;;;;;6214951;23;20633;-95
2022/06/17 11:47:47;;;;;;;;;;;;;;;;;;;;;
2022/06/17 11:50:40;;;;;;;9.57;1.35;;;36.20;50.70;;;;;;6216132;23;20206;-96
2022/06/17 11:53:16;;;;;;;3.00;2.20;;;37.10;49.10;;;;;;6214701;23;20166;-95
2022/06/17 11:55:51;;;;;;;3.78;1.13;;;37.70;48.10;;;;;;6215047;23;20642;-96
2022/06/17 11:59:19;;;;;;;4.38;1.83;;;37.80;47.20;;;;;;6214905;23;20247;-94
2022/06/17 12:05:00;;;;;;;;;;;;;;;;;;;;;
2022/06/17 12:07:52;;;;;;;;;;;;;;;;;;;;;
2022/06/17 12:10:49;;;;;;;;;;;;;;;;;;;;;
2022/06/17 12:13:25;;;;;;;2.72;1.25;;;40.20;46.40;;;;;;6216438;23;20272;-96
2022/06/17 12:19:19;;;;;;;4.22;1.60;;;39.90;46.80;;;;;;6190723;23;20208;-96
2022/06/17 12:22:03;;;;;;;3.72;1.25;;;39.60;46.80;;;;;;6211740;23;20155;-96
2022/06/17 12:28:08;;;;;;;;;;;;;;;;;;;;;
2022/06/17 12:31:17;;;;;;;;;;;;;;;;;;;;;
2022/06/17 12:48:55;;;;;;;;;;;;;;;;;;;;;
2022/06/17 12:58:48;;;;;;;3.53;1.20;;;41.50;45.40;;;;;;6017872;23;20208;-92
2022/06/17 13:02:11;;;;;;;;;;;;;;;;;;;;;
2022/06/17 13:29:55;;;;;;;;;;;;;;;;;;;;;
2022/06/17 16:04:43;;;;;;;;;;;;;;;;;;;;;
2022/06/17 16:07:28;;;;;;;;;;;;;;;;;;;;;
2022/06/17 16:11:01;;;;;;;2.35;0.95;;;39.90;45.10;;;;;;6159994;23;20228;-95
2022/06/17 16:14:46;;;;;;;;;;;;;;;;;;;;;
2022/06/17 19:57:30;;;;;;;3.85;2.03;;;33.00;56.10;;;;;;6125707;22;20649;-92
